createdAt,value
2018-07-25T00:00:16.777Z,79.52
2018-07-25T00:01:16.747Z,79.33
2018-07-25T00:02:16.696Z,79.52
2018-07-25T00:03:16.657Z,81.07
2018-07-25T00:04:16.649Z,81.90
2018-07-25T00:05:16.569Z,82.20
2018-07-25T00:06:16.526Z,80.46
2018-07-25T00:07:16.481Z,78.71
2018-07-25T00:08:16.447Z,79.39
2018-07-25T00:09:16.433Z,82.58
2018-07-25T00:10:16.364Z,81.32
2018-07-25T00:11:16.314Z,80.46
2018-07-25T00:12:16.257Z,82.68
2018-07-25T00:13:16.220Z,81.90
2018-07-25T00:14:16.252Z,81.96
2018-07-25T00:15:16.138Z,80.90
2018-07-25T00:16:16.090Z,82.68
2018-07-25T00:17:16.049Z,81.09
2018-07-25T00:18:16.028Z,80.32
2018-07-25T00:19:15.992Z,81.09
2018-07-25T00:20:15.926Z,81.87
2018-07-25T00:21:15.879Z,82.83
2018-07-25T00:22:15.853Z,82.93
2018-07-25T00:23:15.798Z,84.57
2018-07-25T00:24:15.760Z,83.80
2018-07-25T00:25:15.705Z,82.73
2018-07-25T00:26:15.669Z,80.41
2018-07-25T00:27:15.620Z,81.29
2018-07-25T00:28:15.572Z,81.87
2018-07-25T00:29:15.561Z,83.51
2018-07-25T00:30:15.498Z,83.22
2018-07-25T00:31:15.435Z,83.03
2018-07-25T00:32:15.405Z,83.89
2018-07-25T00:33:15.356Z,83.18
2018-07-25T00:34:15.347Z,83.03
2018-07-25T00:35:15.276Z,83.51
2018-07-25T00:36:15.260Z,83.56
2018-07-25T00:37:15.179Z,85.21
2018-07-25T00:38:15.132Z,84.53
2018-07-25T00:39:15.121Z,84.91
2018-07-25T00:40:15.063Z,85.40
2018-07-25T00:41:15.016Z,85.98
2018-07-25T00:42:14.959Z,85.59
2018-07-25T00:43:14.914Z,85.21
2018-07-25T00:44:14.939Z,84.82
2018-07-25T00:45:14.829Z,85.49
2018-07-25T00:46:14.801Z,85.30
2018-07-25T00:47:14.750Z,86.13
2018-07-25T00:48:14.713Z,86.17
2018-07-25T00:49:14.689Z,87.00
2018-07-25T00:50:14.605Z,87.23
2018-07-25T00:51:14.557Z,86.32
2018-07-25T00:52:14.525Z,86.42
2018-07-25T00:53:14.467Z,87.00
2018-07-25T00:54:14.457Z,86.90
2018-07-25T00:55:14.433Z,86.80
2018-07-25T00:56:14.347Z,86.90
2018-07-25T00:57:14.301Z,87.00
2018-07-25T00:58:14.274Z,88.45
2018-07-25T00:59:14.241Z,88.25
2018-07-25T01:00:14.198Z,88.25
2018-07-25T01:01:14.127Z,88.64
2018-07-25T01:02:14.097Z,89.12
2018-07-25T01:03:14.049Z,89.51
2018-07-25T01:04:13.997Z,89.89
2018-07-25T01:05:13.968Z,91.35
2018-07-25T01:06:13.898Z,91.44
2018-07-25T01:07:13.863Z,90.37
2018-07-25T01:08:13.825Z,89.12
2018-07-25T01:09:13.797Z,89.70
2018-07-25T01:10:13.761Z,89.70
2018-07-25T01:11:13.692Z,89.70
2018-07-25T01:12:13.635Z,90.47
2018-07-25T01:13:13.589Z,90.28
2018-07-25T01:14:13.558Z,92.02
2018-07-25T01:15:13.535Z,90.86
2018-07-25T01:16:13.456Z,90.77
2018-07-25T01:17:13.419Z,91.53
2018-07-25T01:18:13.374Z,93.37
2018-07-25T01:19:13.330Z,93.47
2018-07-25T01:20:13.326Z,93.08
2018-07-25T01:21:13.244Z,92.50
2018-07-25T01:22:13.195Z,93.27
2018-07-25T01:23:13.171Z,93.76
2018-07-25T01:24:13.137Z,95.01
2018-07-25T01:25:13.104Z,95.01
2018-07-25T01:26:13.035Z,95.68
2018-07-25T01:27:12.971Z,95.78
2018-07-25T01:28:12.937Z,95.78
2018-07-25T01:29:12.895Z,95.50
2018-07-25T01:30:12.894Z,95.68
2018-07-25T01:31:12.808Z,95.50
2018-07-25T01:32:12.761Z,95.88
2018-07-25T01:33:12.708Z,96.26
2018-07-25T01:34:12.668Z,97.14
2018-07-25T01:35:12.651Z,98.30
2018-07-25T01:36:12.617Z,97.81
2018-07-25T01:37:12.549Z,97.42
2018-07-25T01:38:12.499Z,99.26
2018-07-25T01:39:12.455Z,98.97
2018-07-25T01:40:12.463Z,97.91
2018-07-25T01:41:12.352Z,98.83
2018-07-25T01:42:12.322Z,98.88
2018-07-25T01:43:12.472Z,99.26
2018-07-25T01:44:12.220Z,98.97
2018-07-25T01:45:12.229Z,98.83
2018-07-25T01:46:12.133Z,98.83
2018-07-25T01:47:12.089Z,98.54
2018-07-25T01:48:12.043Z,98.05
2018-07-25T01:49:11.999Z,98.73
2018-07-25T01:50:11.976Z,99.50
2018-07-25T01:51:11.911Z,99.21
2018-07-25T01:52:11.864Z,99.99
2018-07-25T01:53:11.819Z,99.79
2018-07-25T01:54:11.775Z,99.50
2018-07-25T01:55:11.757Z,99.21
2018-07-25T01:56:11.691Z,99.98
2018-07-25T01:57:11.646Z,99.99
2018-07-25T01:58:11.604Z,99.99
2018-07-25T01:59:11.565Z,99.99
2018-07-25T02:00:11.566Z,99.99
2018-07-25T02:01:11.471Z,99.99
2018-07-25T02:02:11.421Z,99.99
2018-07-25T02:03:11.379Z,99.99
2018-07-25T02:04:11.337Z,99.99
2018-07-25T02:05:11.345Z,99.99
2018-07-25T02:06:11.245Z,99.99
2018-07-25T02:07:11.243Z,99.99
2018-07-25T02:08:11.171Z,99.99
2018-07-25T02:09:11.118Z,99.88
2018-07-25T02:10:11.092Z,99.55
2018-07-25T02:11:11.029Z,99.99
2018-07-25T02:12:10.983Z,99.99
2018-07-25T02:13:10.937Z,99.99
2018-07-25T02:14:10.892Z,99.99
2018-07-25T02:15:10.874Z,99.99
2018-07-25T02:16:10.813Z,99.99
2018-07-25T02:17:10.765Z,99.99
2018-07-25T02:18:10.717Z,99.99
2018-07-25T02:19:10.671Z,99.99
2018-07-25T02:20:10.654Z,99.99
2018-07-25T02:21:10.591Z,99.99
2018-07-25T02:22:10.536Z,99.99
2018-07-25T02:23:10.491Z,99.99
2018-07-25T02:24:10.445Z,99.99
2018-07-25T02:25:10.448Z,99.99
2018-07-25T02:26:10.357Z,99.99
2018-07-25T02:27:10.311Z,99.99
2018-07-25T02:28:10.277Z,99.99
2018-07-25T02:29:10.223Z,99.99
2018-07-25T02:30:10.179Z,99.99
2018-07-25T02:31:10.160Z,99.99
2018-07-25T02:32:10.098Z,99.99
2018-07-25T02:33:10.058Z,99.99
2018-07-25T02:34:10.014Z,99.99
2018-07-25T02:35:09.974Z,99.99
2018-07-25T02:36:09.974Z,99.99
2018-07-25T02:37:09.867Z,99.99
2018-07-25T02:38:09.825Z,99.99
2018-07-25T02:39:09.791Z,99.99
2018-07-25T02:40:09.745Z,99.99
2018-07-25T02:41:09.714Z,99.99
2018-07-25T02:42:09.642Z,99.99
2018-07-25T02:43:10.052Z,99.99
2018-07-25T02:44:09.552Z,99.99
2018-07-25T02:45:09.510Z,99.99
2018-07-25T02:46:09.511Z,99.99
2018-07-25T02:47:09.445Z,99.99
2018-07-25T02:48:09.384Z,99.99
2018-07-25T02:49:09.333Z,99.99
2018-07-25T02:50:09.285Z,99.99
2018-07-25T02:51:09.273Z,99.99
2018-07-25T02:52:09.196Z,99.99
2018-07-25T02:53:09.164Z,99.99
2018-07-25T02:54:09.119Z,99.99
2018-07-25T02:55:09.061Z,99.99
2018-07-25T02:56:09.047Z,99.99
2018-07-25T02:57:08.972Z,99.99
2018-07-25T02:58:08.936Z,99.99
2018-07-25T02:59:08.881Z,99.99
2018-07-25T03:00:08.845Z,99.99
2018-07-25T03:01:08.820Z,99.99
2018-07-25T03:02:08.760Z,99.99
2018-07-25T03:03:08.710Z,99.99
2018-07-25T03:04:08.671Z,99.99
2018-07-25T03:05:08.615Z,99.99
2018-07-25T03:06:08.609Z,99.99
2018-07-25T03:07:08.564Z,99.99
2018-07-25T03:08:08.502Z,99.99
2018-07-25T03:09:08.551Z,99.99
2018-07-25T03:10:08.389Z,99.99
2018-07-25T03:11:08.389Z,99.99
2018-07-25T03:12:08.302Z,99.99
2018-07-25T03:13:08.262Z,99.99
2018-07-25T03:14:08.211Z,99.99
2018-07-25T03:15:08.173Z,99.99
2018-07-25T03:16:08.162Z,99.99
2018-07-25T03:17:08.085Z,99.99
2018-07-25T03:18:08.060Z,99.99
2018-07-25T03:19:07.998Z,99.99
2018-07-25T03:20:07.953Z,99.99
2018-07-25T03:21:07.932Z,99.99
2018-07-25T03:22:07.868Z,99.99
2018-07-25T03:23:07.813Z,99.99
2018-07-25T03:24:07.770Z,99.99
2018-07-25T03:25:07.729Z,99.99
2018-07-25T03:26:07.738Z,99.99
2018-07-25T03:27:07.643Z,99.99
2018-07-25T03:28:07.593Z,99.99
2018-07-25T03:29:07.553Z,99.99
2018-07-25T03:30:07.497Z,99.99
2018-07-25T03:31:07.467Z,99.99
2018-07-25T03:32:07.465Z,99.99
2018-07-25T03:33:07.365Z,99.99
2018-07-25T03:34:07.320Z,99.99
2018-07-25T03:35:07.286Z,99.99
2018-07-25T03:36:07.227Z,99.99
2018-07-25T03:37:07.221Z,99.99
2018-07-25T03:38:07.137Z,99.99
2018-07-25T03:39:07.102Z,99.99
2018-07-25T03:40:07.049Z,99.99
2018-07-25T03:41:07.015Z,99.99
2018-07-25T03:42:07.036Z,99.99
2018-07-25T03:43:06.935Z,99.99
2018-07-25T03:44:06.885Z,99.99
2018-07-25T03:45:06.826Z,99.99
2018-07-25T03:46:06.778Z,99.99
2018-07-25T03:47:06.760Z,99.99
2018-07-25T03:48:06.699Z,99.99
2018-07-25T03:49:06.645Z,99.99
2018-07-25T03:50:06.607Z,99.99
2018-07-25T03:51:06.564Z,99.99
2018-07-25T03:52:06.554Z,99.99
2018-07-25T03:53:06.490Z,99.99
2018-07-25T03:54:06.421Z,99.99
2018-07-25T03:55:06.375Z,99.99
2018-07-25T03:56:06.329Z,99.99
2018-07-25T03:57:06.318Z,99.99
2018-07-25T03:58:06.247Z,99.99
2018-07-25T03:59:06.197Z,99.99
2018-07-25T04:00:06.159Z,99.99
2018-07-25T04:01:06.119Z,99.99
2018-07-25T04:02:06.166Z,99.99
2018-07-25T04:03:06.019Z,99.99
2018-07-25T04:04:05.974Z,99.99
2018-07-25T04:05:05.930Z,99.99
2018-07-25T04:06:05.892Z,99.99
2018-07-25T04:07:05.877Z,99.99
2018-07-25T04:08:05.791Z,99.99
2018-07-25T04:09:05.773Z,99.99
2018-07-25T04:10:05.704Z,99.99
2018-07-25T04:11:05.660Z,99.99
2018-07-25T04:12:05.644Z,99.99
2018-07-25T04:13:05.568Z,99.99
2018-07-25T04:14:05.534Z,99.99
2018-07-25T04:15:05.476Z,99.99
2018-07-25T04:16:05.432Z,99.99
2018-07-25T04:17:05.414Z,99.99
2018-07-25T04:18:05.353Z,99.99
2018-07-25T04:19:05.296Z,99.99
2018-07-25T04:20:05.252Z,99.99
2018-07-25T04:21:05.209Z,99.99
2018-07-25T04:22:05.195Z,99.99
2018-07-25T04:23:05.136Z,99.99
2018-07-25T04:24:05.074Z,99.99
2018-07-25T04:25:05.044Z,99.99
2018-07-25T04:26:04.988Z,99.99
2018-07-25T04:27:04.989Z,99.99
2018-07-25T04:28:04.895Z,99.99
2018-07-25T04:29:04.855Z,99.99
2018-07-25T04:30:04.824Z,99.99
2018-07-25T04:31:04.766Z,99.99
2018-07-25T04:32:04.742Z,99.99
2018-07-25T04:33:04.671Z,99.99
2018-07-25T04:34:04.625Z,99.99
2018-07-25T04:35:04.591Z,99.99
2018-07-25T04:36:04.545Z,99.99
2018-07-25T04:37:04.515Z,99.99
2018-07-25T04:38:04.450Z,99.99
2018-07-25T04:39:04.397Z,99.99
2018-07-25T04:40:04.355Z,99.99
2018-07-25T04:41:04.308Z,99.99
2018-07-25T04:42:04.286Z,99.99
2018-07-25T04:43:04.237Z,99.99
2018-07-25T04:44:04.176Z,99.99
2018-07-25T04:45:04.142Z,99.99
2018-07-25T04:46:04.152Z,99.99
2018-07-25T04:47:04.077Z,99.99
2018-07-25T04:48:04.008Z,99.99
2018-07-25T04:49:03.956Z,99.99
2018-07-25T04:50:03.924Z,99.99
2018-07-25T04:51:03.875Z,99.99
2018-07-25T04:52:03.879Z,99.99
2018-07-25T04:53:03.783Z,99.99
2018-07-25T04:54:03.743Z,99.99
2018-07-25T04:55:03.691Z,99.99
2018-07-25T04:56:03.671Z,99.99
2018-07-25T04:57:03.655Z,99.99
2018-07-25T04:58:03.553Z,99.99
2018-07-25T04:59:03.516Z,99.99
2018-07-25T05:00:03.469Z,99.99
2018-07-25T05:01:03.420Z,99.99
2018-07-25T05:02:03.412Z,99.99
2018-07-25T05:03:03.387Z,99.99
2018-07-25T05:04:03.304Z,99.99
2018-07-25T05:05:03.248Z,99.99
2018-07-25T05:06:03.205Z,99.99
2018-07-25T05:07:03.174Z,99.99
2018-07-25T05:08:03.149Z,99.99
2018-07-25T05:09:03.077Z,99.99
2018-07-25T05:10:03.023Z,99.99
2018-07-25T05:11:02.984Z,99.99
2018-07-25T05:12:02.957Z,99.99
2018-07-25T05:13:02.950Z,99.99
2018-07-25T05:14:02.858Z,99.99
2018-07-25T05:15:02.816Z,99.99
2018-07-25T05:16:02.779Z,99.99
2018-07-25T05:17:02.730Z,99.99
2018-07-25T05:18:02.753Z,99.99
2018-07-25T05:19:02.644Z,99.99
2018-07-25T05:20:02.605Z,99.99
2018-07-25T05:21:02.552Z,99.99
2018-07-25T05:22:02.509Z,99.99
2018-07-25T05:23:02.513Z,99.99
2018-07-25T05:24:02.426Z,99.99
2018-07-25T05:25:02.378Z,99.99
2018-07-25T05:26:02.340Z,99.99
2018-07-25T05:27:02.298Z,99.99
2018-07-25T05:28:02.267Z,99.99
2018-07-25T05:29:02.193Z,99.99
2018-07-25T05:30:02.198Z,99.99
2018-07-25T05:31:02.133Z,99.99
2018-07-25T05:32:02.081Z,99.99
2018-07-25T05:33:02.076Z,99.99
2018-07-25T05:34:01.981Z,99.99
2018-07-25T05:35:01.935Z,99.99
2018-07-25T05:36:01.899Z,99.99
2018-07-25T05:37:01.857Z,99.99
2018-07-25T05:38:01.846Z,99.99
2018-07-25T05:39:01.768Z,99.99
2018-07-25T05:40:01.722Z,99.99
2018-07-25T05:41:01.682Z,99.70
2018-07-25T05:42:01.635Z,98.97
2018-07-25T05:43:01.634Z,96.26
2018-07-25T05:44:01.547Z,95.34
2018-07-25T05:45:01.505Z,96.31
2018-07-25T05:46:01.458Z,96.70
2018-07-25T05:47:01.441Z,98.20
2018-07-25T05:48:01.401Z,95.19
2018-07-25T05:49:01.335Z,93.26
2018-07-25T05:50:01.302Z,95.34
2018-07-25T05:51:01.263Z,91.36
2018-07-25T05:52:01.206Z,90.88
2018-07-25T05:53:01.203Z,86.46
2018-07-25T05:54:01.138Z,85.97
2018-07-25T05:55:01.101Z,83.45
2018-07-25T05:56:01.046Z,81.90
2018-07-25T05:57:01.001Z,82.62
2018-07-25T05:58:01.025Z,83.29
2018-07-25T05:59:00.912Z,78.73
2018-07-25T06:00:00.880Z,79.32
2018-07-25T06:01:00.831Z,75.92
2018-07-25T06:02:00.818Z,73.30
2018-07-25T06:03:00.900Z,72.36
2018-07-25T06:04:00.711Z,70.81
2018-07-25T06:05:00.673Z,70.65
2018-07-25T06:06:00.625Z,72.88
2018-07-25T06:07:00.597Z,73.37
2018-07-25T06:08:00.588Z,71.66
2018-07-25T06:09:00.497Z,71.94
2018-07-25T06:10:00.462Z,69.32
2018-07-25T06:11:00.424Z,67.50
2018-07-25T06:12:00.401Z,67.80
2018-07-25T06:13:00.362Z,67.21
2018-07-25T06:14:00.294Z,70.52
2018-07-25T06:15:00.253Z,68.09
2018-07-25T06:16:00.211Z,67.11
2018-07-25T06:17:00.171Z,68.38
2018-07-25T06:18:00.163Z,66.83
2018-07-25T06:19:00.091Z,67.99
2018-07-25T06:20:00.050Z,67.80
2018-07-25T06:21:00.008Z,66.69
2018-07-25T06:21:59.969Z,69.13
2018-07-25T06:22:59.952Z,69.03
2018-07-25T06:23:59.884Z,69.81
2018-07-25T06:24:59.843Z,69.32
2018-07-25T06:25:59.824Z,70.32
2018-07-25T06:26:59.765Z,68.77
2018-07-25T06:27:59.750Z,67.60
2018-07-25T06:28:59.683Z,67.31
2018-07-25T06:29:59.642Z,66.73
2018-07-25T06:30:59.601Z,67.80
2018-07-25T06:31:59.564Z,67.80
2018-07-25T06:32:59.570Z,65.27
2018-07-25T06:33:59.479Z,64.98
2018-07-25T06:34:59.445Z,66.24
2018-07-25T06:35:59.398Z,65.88
2018-07-25T06:36:59.361Z,65.59
2018-07-25T06:37:59.339Z,65.40
2018-07-25T06:38:59.306Z,66.05
2018-07-25T06:39:59.245Z,67.11
2018-07-25T06:40:59.202Z,67.31
2018-07-25T06:41:59.158Z,66.44
2018-07-25T06:42:59.121Z,66.44
2018-07-25T06:43:59.109Z,66.69
2018-07-25T06:44:59.042Z,66.21
2018-07-25T06:45:59.004Z,67.11
2018-07-25T06:46:58.965Z,67.80
2018-07-25T06:47:58.925Z,68.57
2018-07-25T06:48:58.907Z,67.35
2018-07-25T06:49:58.841Z,66.47
2018-07-25T06:50:58.803Z,65.98
2018-07-25T06:51:58.794Z,65.88
2018-07-25T06:52:58.722Z,67.73
2018-07-25T06:53:58.704Z,65.23
2018-07-25T06:54:58.643Z,65.43
2018-07-25T06:55:58.603Z,69.23
2018-07-25T06:56:58.567Z,65.92
2018-07-25T06:57:58.528Z,66.02
2018-07-25T06:58:58.504Z,64.45
2018-07-25T06:59:58.440Z,62.60
2018-07-25T07:00:58.404Z,61.76
2018-07-25T07:01:58.363Z,61.08
2018-07-25T07:02:58.324Z,61.18
2018-07-25T07:03:58.314Z,59.55
2018-07-25T07:04:58.245Z,59.55
2018-07-25T07:05:58.201Z,59.55
2018-07-25T07:06:58.245Z,58.31
2018-07-25T07:07:58.133Z,55.38
2018-07-25T07:08:58.113Z,54.44
2018-07-25T07:09:58.049Z,56.46
2018-07-25T07:10:58.008Z,55.80
2018-07-25T07:11:58.023Z,55.02
2018-07-25T07:12:57.928Z,54.85
2018-07-25T07:13:57.917Z,55.93
2018-07-25T07:14:57.859Z,55.18
2018-07-25T07:15:57.810Z,54.66
2018-07-25T07:16:57.773Z,56.12
2018-07-25T07:17:57.736Z,56.51
2018-07-25T07:18:57.719Z,57.36
2018-07-25T07:19:57.656Z,57.36
2018-07-25T07:20:57.623Z,56.48
2018-07-25T07:21:57.576Z,56.10
2018-07-25T07:22:57.540Z,58.44
2018-07-25T07:23:57.565Z,56.81
2018-07-25T07:24:57.460Z,56.20
2018-07-25T07:25:57.429Z,57.26
2018-07-25T07:26:57.382Z,58.14
2018-07-25T07:27:57.345Z,57.24
2018-07-25T07:28:57.331Z,56.36
2018-07-25T07:29:57.270Z,57.92
2018-07-25T07:30:57.229Z,59.58
2018-07-25T07:31:57.189Z,58.87
2018-07-25T07:32:57.153Z,59.77
2018-07-25T07:33:57.136Z,60.55
2018-07-25T07:34:57.087Z,61.14
2018-07-25T07:35:57.033Z,60.16
2018-07-25T07:36:56.997Z,59.58
2018-07-25T07:37:56.956Z,58.14
2018-07-25T07:38:56.944Z,59.31
2018-07-25T07:39:56.884Z,56.20
2018-07-25T07:40:56.842Z,55.48
2018-07-25T07:41:56.801Z,57.14
2018-07-25T07:42:56.764Z,60.06
2018-07-25T07:43:56.750Z,59.48
2018-07-25T07:44:56.686Z,58.18
2018-07-25T07:45:56.647Z,59.48
2018-07-25T07:46:56.608Z,61.04
2018-07-25T07:47:56.571Z,60.06
2018-07-25T07:48:56.553Z,59.28
2018-07-25T07:49:56.496Z,58.99
2018-07-25T07:50:56.456Z,57.43
2018-07-25T07:51:56.419Z,57.92
2018-07-25T07:52:56.382Z,56.26
2018-07-25T07:53:56.384Z,56.65
2018-07-25T07:54:56.302Z,57.24
2018-07-25T07:55:56.261Z,55.09
2018-07-25T07:56:56.246Z,55.97
2018-07-25T07:57:56.184Z,58.22
2018-07-25T07:58:56.177Z,56.16
2018-07-25T07:59:56.106Z,54.99
2018-07-25T08:00:56.068Z,54.02
2018-07-25T08:01:56.035Z,54.21
2018-07-25T08:02:55.997Z,54.31
2018-07-25T08:03:55.954Z,54.93
2018-07-25T08:04:56.000Z,54.34
2018-07-25T08:05:55.872Z,54.14
2018-07-25T08:06:55.834Z,55.12
2018-07-25T08:07:55.801Z,53.73
2018-07-25T08:08:55.758Z,53.85
2018-07-25T08:09:55.740Z,54.05
2018-07-25T08:10:55.680Z,52.68
2018-07-25T08:11:55.640Z,53.85
2018-07-25T08:12:55.605Z,53.36
2018-07-25T08:13:55.567Z,54.05
2018-07-25T08:14:55.553Z,55.22
2018-07-25T08:15:55.506Z,55.02
2018-07-25T08:16:55.451Z,55.22
2018-07-25T08:17:55.472Z,55.63
2018-07-25T08:18:55.371Z,54.46
2018-07-25T08:19:55.395Z,55.05
2018-07-25T08:20:55.305Z,53.71
2018-07-25T08:21:55.257Z,52.47
2018-07-25T08:22:55.220Z,53.56
2018-07-25T08:23:55.183Z,54.74
2018-07-25T08:24:55.163Z,54.74
2018-07-25T08:25:55.105Z,53.27
2018-07-25T08:26:55.062Z,54.64
2018-07-25T08:27:55.027Z,54.35
2018-07-25T08:28:54.992Z,56.18
2018-07-25T08:29:54.970Z,52.93
2018-07-25T08:30:54.913Z,53.52
2018-07-25T08:31:54.898Z,55.40
2018-07-25T08:32:54.838Z,54.71
2018-07-25T08:33:54.797Z,55.00
2018-07-25T08:34:54.805Z,53.83
2018-07-25T08:35:54.723Z,52.83
2018-07-25T08:36:54.701Z,52.73
2018-07-25T08:37:54.649Z,53.42
2018-07-25T08:38:54.606Z,55.08
2018-07-25T08:39:54.597Z,55.18
2018-07-25T08:40:54.542Z,55.08
2018-07-25T08:41:54.509Z,55.76
2018-07-25T08:42:54.458Z,55.66
2018-07-25T08:43:54.420Z,54.52
2018-07-25T08:44:54.406Z,55.79
2018-07-25T08:45:54.342Z,55.98
2018-07-25T08:46:54.365Z,54.03
2018-07-25T08:47:54.268Z,52.08
2018-07-25T08:48:54.233Z,50.90
2018-07-25T08:49:54.213Z,51.39
2018-07-25T08:50:54.173Z,53.74
2018-07-25T08:51:54.120Z,54.22
2018-07-25T08:52:54.139Z,52.17
2018-07-25T08:53:54.038Z,52.66
2018-07-25T08:54:54.027Z,52.66
2018-07-25T08:55:53.968Z,53.74
2018-07-25T08:56:53.929Z,53.74
2018-07-25T08:57:53.952Z,52.69
2018-07-25T08:58:53.848Z,54.35
2018-07-25T08:59:53.839Z,53.37
2018-07-25T09:00:53.795Z,53.56
2018-07-25T09:01:53.772Z,50.66
2018-07-25T09:02:53.700Z,49.29
2018-07-25T09:03:53.662Z,46.86
2018-07-25T09:04:53.648Z,46.86
2018-07-25T09:05:53.581Z,48.04
2018-07-25T09:06:53.552Z,48.14
2018-07-25T09:07:53.519Z,47.08
2018-07-25T09:08:53.475Z,46.98
2018-07-25T09:09:53.460Z,49.24
2018-07-25T09:10:53.399Z,47.18
2018-07-25T09:11:53.362Z,46.08
2018-07-25T09:12:53.341Z,48.24
2018-07-25T09:13:53.286Z,47.85
2018-07-25T09:14:53.274Z,46.67
2018-07-25T09:15:53.217Z,45.62
2018-07-25T09:16:53.243Z,46.89
2018-07-25T09:17:53.143Z,45.25
2018-07-25T09:18:53.098Z,44.85
2018-07-25T09:19:53.179Z,46.44
2018-07-25T09:20:53.034Z,43.68
2018-07-25T09:21:52.989Z,45.05
2018-07-25T09:22:52.955Z,44.27
2018-07-25T09:23:52.916Z,44.95
2018-07-25T09:24:52.881Z,44.09
2018-07-25T09:25:52.865Z,43.51
2018-07-25T09:26:52.806Z,43.13
2018-07-25T09:27:52.775Z,42.35
2018-07-25T09:28:52.735Z,42.27
2018-07-25T09:29:52.704Z,42.08
2018-07-25T09:30:52.684Z,42.19
2018-07-25T09:31:52.620Z,43.66
2018-07-25T09:32:52.588Z,42.08
2018-07-25T09:33:52.576Z,44.53
2018-07-25T09:34:52.519Z,42.05
2018-07-25T09:35:52.500Z,43.02
2018-07-25T09:36:52.441Z,41.84
2018-07-25T09:37:52.406Z,42.05
2018-07-25T09:38:52.370Z,42.15
2018-07-25T09:39:52.334Z,43.62
2018-07-25T09:40:52.343Z,44.70
2018-07-25T09:41:52.261Z,42.86
2018-07-25T09:42:52.224Z,42.96
2018-07-25T09:43:52.193Z,43.82
2018-07-25T09:44:52.153Z,44.09
2018-07-25T09:45:52.158Z,44.85
2018-07-25T09:46:52.162Z,44.76
2018-07-25T09:47:52.040Z,45.25
2018-07-25T09:48:52.005Z,45.25
2018-07-25T09:49:51.974Z,45.05
2018-07-25T09:50:51.957Z,44.68
2018-07-25T09:51:51.896Z,44.88
2018-07-25T09:52:51.954Z,46.15
2018-07-25T09:53:51.828Z,46.34
2018-07-25T09:54:51.791Z,44.19
2018-07-25T09:55:51.780Z,44.27
2018-07-25T09:56:51.719Z,45.05
2018-07-25T09:57:51.684Z,43.31
2018-07-25T09:58:51.717Z,43.77
2018-07-25T09:59:51.613Z,42.60
2018-07-25T10:00:51.604Z,43.77
2018-07-25T10:01:51.541Z,43.12
2018-07-25T10:02:51.501Z,44.29
2018-07-25T10:03:51.471Z,44.02
2018-07-25T10:04:51.443Z,43.04
2018-07-25T10:05:51.446Z,44.90
2018-07-25T10:06:51.369Z,44.70
2018-07-25T10:07:51.341Z,42.94
2018-07-25T10:08:51.311Z,41.47
2018-07-25T10:09:51.248Z,42.57
2018-07-25T10:10:51.254Z,45.04
2018-07-25T10:11:51.178Z,43.18
2018-07-25T10:12:51.149Z,42.39
2018-07-25T10:13:51.113Z,43.65
2018-07-25T10:14:51.073Z,41.88
2018-07-25T10:15:51.059Z,44.62
2018-07-25T10:16:51.003Z,44.02
2018-07-25T10:17:50.988Z,44.60
2018-07-25T10:18:50.930Z,47.35
2018-07-25T10:19:50.908Z,45.39
2018-07-25T10:20:50.931Z,42.94
2018-07-25T10:21:50.822Z,44.41
2018-07-25T10:22:50.786Z,42.35
2018-07-25T10:23:50.752Z,44.80
2018-07-25T10:24:50.735Z,47.13
2018-07-25T10:25:50.728Z,44.19
2018-07-25T10:26:50.646Z,43.60
2018-07-25T10:27:50.614Z,44.29
2018-07-25T10:28:50.583Z,45.07
2018-07-25T10:29:50.539Z,43.41
2018-07-25T10:30:50.551Z,42.45
2018-07-25T10:31:50.465Z,42.45
2018-07-25T10:32:50.459Z,42.18
2018-07-25T10:33:50.391Z,41.68
2018-07-25T10:34:50.358Z,41.90
2018-07-25T10:35:50.349Z,40.64
2018-07-25T10:36:50.291Z,40.72
2018-07-25T10:37:50.247Z,42.10
2018-07-25T10:38:50.224Z,42.98
2018-07-25T10:39:50.176Z,41.68
2018-07-25T10:40:50.179Z,44.43
2018-07-25T10:41:50.112Z,44.73
2018-07-25T10:42:50.067Z,43.43
2018-07-25T10:43:50.037Z,42.94
2018-07-25T10:44:50.007Z,42.35
2018-07-25T10:45:49.987Z,42.47
2018-07-25T10:46:49.947Z,41.19
2018-07-25T10:47:49.895Z,41.78
2018-07-25T10:48:49.919Z,42.57
2018-07-25T10:49:49.817Z,42.96
2018-07-25T10:50:49.780Z,43.55
2018-07-25T10:51:49.774Z,42.05
2018-07-25T10:52:49.712Z,39.41
2018-07-25T10:53:49.675Z,38.54
2018-07-25T10:54:49.639Z,38.54
2018-07-25T10:55:49.620Z,38.46
2018-07-25T10:56:49.593Z,38.17
2018-07-25T10:57:57.320Z,38.48
2018-07-25T10:58:49.505Z,37.99
2018-07-25T10:59:49.458Z,37.50
2018-07-25T11:00:49.428Z,36.83
2018-07-25T11:01:49.410Z,37.42
2018-07-25T11:02:49.353Z,36.65
2018-07-25T11:03:49.316Z,36.46
2018-07-25T11:04:49.278Z,36.36
2018-07-25T11:05:49.244Z,35.66
2018-07-25T11:06:49.230Z,36.34
2018-07-25T11:07:49.172Z,36.15
2018-07-25T11:08:49.142Z,36.05
2018-07-25T11:09:49.195Z,36.16
2018-07-25T11:10:49.066Z,37.05
2018-07-25T11:11:49.054Z,35.16
2018-07-25T11:12:48.991Z,35.66
2018-07-25T11:13:48.956Z,35.34
2018-07-25T11:14:48.923Z,35.14
2018-07-25T11:15:48.886Z,35.62
2018-07-25T11:16:48.871Z,36.40
2018-07-25T11:17:48.815Z,36.30
2018-07-25T11:18:48.777Z,36.11
2018-07-25T11:19:48.745Z,36.51
2018-07-25T11:20:48.707Z,36.72
2018-07-25T11:21:48.690Z,36.82
2018-07-25T11:22:48.641Z,36.93
2018-07-25T11:23:48.600Z,37.23
2018-07-25T11:24:48.564Z,38.98
2018-07-25T11:25:48.524Z,36.72
2018-07-25T11:26:48.512Z,36.72
2018-07-25T11:27:48.456Z,37.30
2018-07-25T11:28:48.426Z,37.80
2018-07-25T11:29:48.382Z,36.91
2018-07-25T11:30:48.345Z,37.40
2018-07-25T11:31:48.345Z,38.88
2018-07-25T11:32:48.293Z,38.19
2018-07-25T11:33:48.240Z,39.76
2018-07-25T11:34:48.204Z,40.35
2018-07-25T11:35:48.172Z,39.37
2018-07-25T11:36:48.179Z,39.07
2018-07-25T11:37:48.090Z,39.56
2018-07-25T11:38:48.069Z,38.88
2018-07-25T11:39:48.022Z,37.03
2018-07-25T11:40:47.986Z,36.54
2018-07-25T11:41:47.972Z,36.44
2018-07-25T11:42:47.915Z,36.15
2018-07-25T11:43:47.902Z,36.24
2018-07-25T11:44:47.843Z,37.13
2018-07-25T11:45:47.807Z,36.34
2018-07-25T11:46:47.797Z,36.34
2018-07-25T11:47:47.737Z,35.97
2018-07-25T11:48:47.705Z,37.44
2018-07-25T11:49:47.660Z,37.34
2018-07-25T11:50:47.627Z,36.75
2018-07-25T11:51:47.613Z,41.77
2018-07-25T11:52:47.557Z,42.16
2018-07-25T11:53:47.520Z,41.08
2018-07-25T11:54:47.483Z,41.27
2018-07-25T11:55:47.531Z,39.48
2018-07-25T11:56:47.435Z,38.31
2018-07-25T11:57:47.378Z,38.03
2018-07-25T11:58:47.344Z,38.72
2018-07-25T11:59:47.309Z,37.55
2018-07-25T12:00:47.270Z,36.26
2018-07-25T12:01:47.311Z,36.75
2018-07-25T12:02:47.200Z,36.67
2018-07-25T12:03:47.160Z,36.28
2018-07-25T12:04:47.129Z,36.77
2018-07-25T12:05:47.092Z,34.80
2018-07-25T12:06:47.085Z,34.70
2018-07-25T12:07:47.035Z,34.22
2018-07-25T12:08:47.000Z,34.31
2018-07-25T12:09:46.953Z,35.00
2018-07-25T12:10:46.918Z,35.39
2018-07-25T12:11:46.920Z,36.47
2018-07-25T12:12:46.850Z,35.51
2018-07-25T12:13:46.809Z,36.40
2018-07-25T12:14:46.776Z,35.20
2018-07-25T12:15:46.741Z,33.53
2018-07-25T12:16:46.715Z,32.15
2018-07-25T12:17:46.693Z,32.64
2018-07-25T12:18:46.639Z,33.94
2018-07-25T12:19:46.602Z,31.85
2018-07-25T12:20:46.564Z,32.05
2018-07-25T12:21:46.531Z,32.93
2018-07-25T12:22:46.515Z,33.53
2018-07-25T12:23:46.459Z,33.74
2018-07-25T12:24:46.425Z,34.13
2018-07-25T12:25:46.388Z,33.74
2018-07-25T12:26:46.389Z,34.01
2018-07-25T12:27:46.346Z,34.11
2018-07-25T12:28:46.284Z,33.72
2018-07-25T12:29:46.245Z,32.72
2018-07-25T12:30:46.212Z,33.70
2018-07-25T12:31:46.180Z,33.51
2018-07-25T12:32:46.216Z,33.91
2018-07-25T12:33:46.105Z,34.30
2018-07-25T12:34:46.074Z,34.69
2018-07-25T12:35:46.040Z,35.97
2018-07-25T12:36:46.010Z,36.95
2018-07-25T12:37:45.991Z,34.89
2018-07-25T12:38:45.933Z,34.78
2018-07-25T12:39:45.894Z,34.69
2018-07-25T12:40:45.861Z,34.69
2018-07-25T12:41:45.913Z,33.70
2018-07-25T12:42:45.845Z,33.98
2018-07-25T12:43:45.753Z,33.69
2018-07-25T12:44:45.716Z,34.38
2018-07-25T12:45:45.680Z,35.26
2018-07-25T12:46:45.646Z,37.72
2018-07-25T12:47:45.638Z,38.70
2018-07-25T12:48:45.574Z,36.32
2018-07-25T12:49:45.545Z,35.74
2018-07-25T12:50:45.539Z,34.26
2018-07-25T12:51:45.466Z,34.26